sensor_id;sensor_type;location;lat;lon;timestamp;P1;durP1;ratioP1;P2;durP2;ratioP2
32106;SDS011;18622;51.998;10.440;2023-10-09T03:33:40;5.58;;;2.15;;
32106;SDS011;18622;51.998;10.440;2023-10-09T03:36:07;5.10;;;2.10;;
32106;SDS011;18622;51.998;10.440;2023-10-09T03:38:38;5.77;;;1.90;;
32106;SDS011;18622;51.998;10.440;2023-10-09T03:41:06;9.47;;;2.27;;
32106;SDS011;18622;51.998;10.440;2023-10-09T03:43:36;3.98;;;2.37;;
32106;SDS011;18622;51.998;10.440;2023-10-09T03:46:05;7.40;;;1.90;;
32106;SDS011;18622;51.998;10.440;2023-10-09T03:48:36;5.73;;;2.20;;
32106;SDS011;18622;51.998;10.440;2023-10-09T03:51:04;8.00;;;2.40;;
32106;SDS011;18622;51.998;10.440;2023-10-09T03:53:40;9.75;;;2.52;;
32106;SDS011;18622;51.998;10.440;2023-10-09T03:56:07;15.70;;;5.30;;
32106;SDS011;18622;51.998;10.440;2023-10-09T03:58:38;41.65;;;15.93;;
32106;SDS011;18622;51.998;10.440;2023-10-09T04:01:14;69.62;;;23.52;;
32106;SDS011;18622;51.998;10.440;2023-10-09T04:03:51;53.37;;;20.30;;
32106;SDS011;18622;51.998;10.440;2023-10-09T04:08:48;50.63;;;19.40;;
32106;SDS011;18622;51.998;10.440;2023-10-09T04:11:17;51.33;;;18.45;;
32106;SDS011;18622;51.998;10.440;2023-10-09T04:13:47;46.68;;;17.05;;
32106;SDS011;18622;51.998;10.440;2023-10-09T04:16:16;36.93;;;16.55;;
32106;SDS011;18622;51.998;10.440;2023-10-09T04:21:13;38.80;;;17.05;;
32106;SDS011;18622;51.998;10.440;2023-10-09T04:23:48;38.70;;;17.63;;
32106;SDS011;18622;51.998;10.440;2023-10-09T04:26:18;32.15;;;16.10;;
32106;SDS011;18622;51.998;10.440;2023-10-09T04:28:46;40.65;;;17.62;;
32106;SDS011;18622;51.998;10.440;2023-10-09T04:31:16;38.38;;;15.93;;
32106;SDS011;18622;51.998;10.440;2023-10-09T04:33:46;37.78;;;17.17;;
32106;SDS011;18622;51.998;10.440;2023-10-09T04:36:32;41.37;;;18.00;;
32106;SDS011;18622;51.998;10.440;2023-10-09T04:39:04;32.50;;;16.05;;
32106;SDS011;18622;51.998;10.440;2023-10-09T04:41:34;31.10;;;14.75;;
32106;SDS011;18622;51.998;10.440;2023-10-09T04:44:10;30.70;;;15.03;;
32106;SDS011;18622;51.998;10.440;2023-10-09T04:46:49;32.53;;;14.67;;
32106;SDS011;18622;51.998;10.440;2023-10-09T04:49:38;24.70;;;13.55;;
32106;SDS011;18622;51.998;10.440;2023-10-09T04:52:17;24.73;;;12.53;;
32106;SDS011;18622;51.998;10.440;2023-10-09T04:54:53;27.80;;;11.83;;
32106;SDS011;18622;51.998;10.440;2023-10-09T04:57:45;21.67;;;11.77;;
32106;SDS011;18622;51.998;10.440;2023-10-09T05:00:14;22.93;;;10.83;;
32106;SDS011;18622;51.998;10.440;2023-10-09T05:02:54;30.00;;;12.40;;
32106;SDS011;18622;51.998;10.440;2023-10-09T05:05:25;24.23;;;11.20;;
32106;SDS011;18622;51.998;10.440;2023-10-09T05:07:56;25.40;;;11.77;;
32106;SDS011;18622;51.998;10.440;2023-10-09T05:10:25;23.77;;;10.45;;
32106;SDS011;18622;51.998;10.440;2023-10-09T05:12:53;27.57;;;11.10;;
32106;SDS011;18622;51.998;10.440;2023-10-09T05:15:24;23.25;;;10.65;;
32106;SDS011;18622;51.998;10.440;2023-10-09T05:17:54;27.02;;;11.50;;
32106;SDS011;18622;51.998;10.440;2023-10-09T05:20:23;26.73;;;11.50;;
32106;SDS011;18622;51.998;10.440;2023-10-09T05:22:55;27.40;;;11.97;;
32106;SDS011;18622;51.998;10.440;2023-10-09T05:25:27;27.62;;;11.10;;
32106;SDS011;18622;51.998;10.440;2023-10-09T05:28:06;31.37;;;12.47;;
32106;SDS011;18622;51.998;10.440;2023-10-09T05:30:35;24.10;;;10.60;;
32106;SDS011;18622;51.998;10.440;2023-10-09T05:33:05;32.13;;;12.85;;
32106;SDS011;18622;51.998;10.440;2023-10-09T05:35:51;26.73;;;11.67;;
32106;SDS011;18622;51.998;10.440;2023-10-09T05:38:36;34.03;;;13.57;;
32106;SDS011;18622;51.998;10.440;2023-10-09T05:41:06;31.02;;;12.35;;
32106;SDS011;18622;51.998;10.440;2023-10-09T05:43:38;28.92;;;12.13;;
32106;SDS011;18622;51.998;10.440;2023-10-09T05:46:24;30.87;;;12.90;;
32106;SDS011;18622;51.998;10.440;2023-10-09T05:48:54;30.60;;;12.25;;
32106;SDS011;18622;51.998;10.440;2023-10-09T05:51:23;36.90;;;14.80;;
32106;SDS011;18622;51.998;10.440;2023-10-09T05:54:09;39.00;;;14.47;;
32106;SDS011;18622;51.998;10.440;2023-10-09T05:56:55;34.53;;;13.83;;
32106;SDS011;18622;51.998;10.440;2023-10-09T05:59:40;31.50;;;13.77;;
32106;SDS011;18622;51.998;10.440;2023-10-09T06:02:26;30.83;;;13.40;;
32106;SDS011;18622;51.998;10.440;2023-10-09T06:05:12;35.20;;;14.33;;
32106;SDS011;18622;51.998;10.440;2023-10-09T06:07:42;31.48;;;12.88;;
32106;SDS011;18622;51.998;10.440;2023-10-09T06:10:11;36.25;;;14.07;;
32106;SDS011;18622;51.998;10.440;2023-10-09T06:12:41;34.80;;;14.40;;
32106;SDS011;18622;51.998;10.440;2023-10-09T06:15:12;35.30;;;14.70;;
32106;SDS011;18622;51.998;10.440;2023-10-09T06:17:47;41.60;;;14.97;;
32106;SDS011;18622;51.998;10.440;2023-10-09T06:20:18;34.53;;;13.90;;
32106;SDS011;18622;51.998;10.440;2023-10-09T06:23:04;34.10;;;14.10;;
32106;SDS011;18622;51.998;10.440;2023-10-09T06:25:45;43.83;;;15.00;;
32106;SDS011;18622;51.998;10.440;2023-10-09T06:28:15;33.40;;;14.43;;
32106;SDS011;18622;51.998;10.440;2023-10-09T06:30:45;36.68;;;14.07;;
32106;SDS011;18622;51.998;10.440;2023-10-09T06:33:13;32.75;;;13.85;;
32106;SDS011;18622;51.998;10.440;2023-10-09T06:35:49;37.67;;;15.30;;
32106;SDS011;18622;51.998;10.440;2023-10-09T06:38:23;42.70;;;15.33;;
32106;SDS011;18622;51.998;10.440;2023-10-09T06:40:53;38.53;;;15.60;;
32106;SDS011;18622;51.998;10.440;2023-10-09T06:43:35;44.20;;;16.17;;
32106;SDS011;18622;51.998;10.440;2023-10-09T06:46:16;43.70;;;17.17;;
32106;SDS011;18622;51.998;10.440;2023-10-09T06:48:55;41.83;;;17.83;;
32106;SDS011;18622;51.998;10.440;2023-10-09T06:51:22;40.10;;;17.03;;
32106;SDS011;18622;51.998;10.440;2023-10-09T06:53:55;41.85;;;15.90;;
32106;SDS011;18622;51.998;10.440;2023-10-09T06:56:35;44.27;;;16.97;;
32106;SDS011;18622;51.998;10.440;2023-10-09T06:59:05;42.10;;;16.62;;
32106;SDS011;18622;51.998;10.440;2023-10-09T07:01:43;34.90;;;15.80;;
32106;SDS011;18622;51.998;10.440;2023-10-09T07:04:13;44.70;;;16.75;;
32106;SDS011;18622;51.998;10.440;2023-10-09T07:07:01;47.83;;;17.37;;
32106;SDS011;18622;51.998;10.440;2023-10-09T07:09:31;52.50;;;18.82;;
32106;SDS011;18622;51.998;10.440;2023-10-09T07:12:12;50.83;;;18.03;;
32106;SDS011;18622;51.998;10.440;2023-10-09T07:14:42;53.52;;;16.62;;
32106;SDS011;18622;51.998;10.440;2023-10-09T07:17:12;48.95;;;17.42;;
32106;SDS011;18622;51.998;10.440;2023-10-09T07:19:44;48.30;;;17.60;;
32106;SDS011;18622;51.998;10.440;2023-10-09T07:22:14;44.75;;;17.70;;
32106;SDS011;18622;51.998;10.440;2023-10-09T07:24:44;42.17;;;16.17;;
32106;SDS011;18622;51.998;10.440;2023-10-09T07:27:19;37.50;;;15.47;;
32106;SDS011;18622;51.998;10.440;2023-10-09T07:29:48;43.02;;;17.12;;
32106;SDS011;18622;51.998;10.440;2023-10-09T07:32:16;42.77;;;15.77;;
32106;SDS011;18622;51.998;10.440;2023-10-09T07:34:48;40.60;;;15.77;;
32106;SDS011;18622;51.998;10.440;2023-10-09T07:37:25;45.80;;;14.90;;
32106;SDS011;18622;51.998;10.440;2023-10-09T07:40:02;40.50;;;16.62;;
32106;SDS011;18622;51.998;10.440;2023-10-09T07:42:31;45.10;;;17.15;;
32106;SDS011;18622;51.998;10.440;2023-10-09T07:45:10;43.73;;;17.40;;
32106;SDS011;18622;51.998;10.440;2023-10-09T07:47:49;48.07;;;17.87;;
32106;SDS011;18622;51.998;10.440;2023-10-09T07:50:28;49.43;;;17.77;;
32106;SDS011;18622;51.998;10.440;2023-10-09T07:53:15;48.25;;;18.00;;
32106;SDS011;18622;51.998;10.440;2023-10-09T07:55:48;47.35;;;17.98;;
32106;SDS011;18622;51.998;10.440;2023-10-09T07:58:23;43.60;;;17.37;;
32106;SDS011;18622;51.998;10.440;2023-10-09T08:00:57;45.75;;;17.57;;
32106;SDS011;18622;51.998;10.440;2023-10-09T08:03:26;44.13;;;18.27;;
32106;SDS011;18622;51.998;10.440;2023-10-09T08:05:56;54.40;;;18.87;;
32106;SDS011;18622;51.998;10.440;2023-10-09T08:08:25;40.95;;;15.38;;
32106;SDS011;18622;51.998;10.440;2023-10-09T08:11:01;52.70;;;20.50;;
32106;SDS011;18622;51.998;10.440;2023-10-09T08:13:47;47.73;;;19.60;;
32106;SDS011;18622;51.998;10.440;2023-10-09T08:16:25;30.70;;;13.50;;
32106;SDS011;18622;51.998;10.440;2023-10-09T08:18:55;38.05;;;15.38;;
32106;SDS011;18622;51.998;10.440;2023-10-09T08:21:23;40.12;;;15.85;;
32106;SDS011;18622;51.998;10.440;2023-10-09T08:24:11;31.27;;;14.07;;
32106;SDS011;18622;51.998;10.440;2023-10-09T08:26:49;34.83;;;15.43;;
32106;SDS011;18622;51.998;10.440;2023-10-09T08:29:19;23.52;;;11.68;;
32106;SDS011;18622;51.998;10.440;2023-10-09T08:31:48;36.40;;;14.55;;
32106;SDS011;18622;51.998;10.440;2023-10-09T08:34:18;32.78;;;14.05;;
32106;SDS011;18622;51.998;10.440;2023-10-09T08:36:51;37.38;;;13.10;;
32106;SDS011;18622;51.998;10.440;2023-10-09T08:39:22;39.50;;;14.80;;
32106;SDS011;18622;51.998;10.440;2023-10-09T08:41:52;39.00;;;15.50;;
32106;SDS011;18622;51.998;10.440;2023-10-09T08:44:22;32.88;;;14.10;;
32106;SDS011;18622;51.998;10.440;2023-10-09T08:46:56;34.43;;;14.00;;
32106;SDS011;18622;51.998;10.440;2023-10-09T08:49:25;25.97;;;10.85;;
32106;SDS011;18622;51.998;10.440;2023-10-09T08:51:54;27.65;;;11.33;;
32106;SDS011;18622;51.998;10.440;2023-10-09T08:54:22;23.90;;;11.10;;
32106;SDS011;18622;51.998;10.440;2023-10-09T08:56:50;21.90;;;10.17;;
32106;SDS011;18622;51.998;10.440;2023-10-09T08:59:19;21.90;;;9.10;;
32106;SDS011;18622;51.998;10.440;2023-10-09T09:01:47;24.98;;;10.20;;
32106;SDS011;18622;51.998;10.440;2023-10-09T09:07:26;27.47;;;10.43;;
32106;SDS011;18622;51.998;10.440;2023-10-09T09:10:01;18.27;;;8.13;;
32106;SDS011;18622;51.998;10.440;2023-10-09T09:12:46;22.40;;;9.80;;
32106;SDS011;18622;51.998;10.440;2023-10-09T09:15:19;23.70;;;10.73;;
32106;SDS011;18622;51.998;10.440;2023-10-09T09:17:49;25.20;;;10.60;;
32106;SDS011;18622;51.998;10.440;2023-10-09T09:20:24;17.00;;;8.98;;
32106;SDS011;18622;51.998;10.440;2023-10-09T09:22:54;17.40;;;9.03;;
32106;SDS011;18622;51.998;10.440;2023-10-09T09:25:23;20.77;;;8.90;;
32106;SDS011;18622;51.998;10.440;2023-10-09T09:27:53;24.55;;;9.55;;
32106;SDS011;18622;51.998;10.440;2023-10-09T09:30:23;19.13;;;8.40;;
32106;SDS011;18622;51.998;10.440;2023-10-09T09:32:53;20.48;;;9.25;;
32106;SDS011;18622;51.998;10.440;2023-10-09T09:35:39;16.43;;;9.50;;
32106;SDS011;18622;51.998;10.440;2023-10-09T09:38:09;17.62;;;7.67;;
32106;SDS011;18622;51.998;10.440;2023-10-09T09:40:39;17.30;;;8.23;;
32106;SDS011;18622;51.998;10.440;2023-10-09T09:43:09;16.27;;;8.65;;
32106;SDS011;18622;51.998;10.440;2023-10-09T09:45:41;19.57;;;7.92;;
32106;SDS011;18622;51.998;10.440;2023-10-09T09:48:11;16.25;;;7.47;;
32106;SDS011;18622;51.998;10.440;2023-10-09T09:50:42;16.55;;;7.30;;
32106;SDS011;18622;51.998;10.440;2023-10-09T09:53:13;16.17;;;6.57;;
32106;SDS011;18622;51.998;10.440;2023-10-09T09:55:46;13.83;;;6.70;;
32106;SDS011;18622;51.998;10.440;2023-10-09T09:58:23;14.93;;;7.70;;
32106;SDS011;18622;51.998;10.440;2023-10-09T10:00:53;14.50;;;6.58;;
32106;SDS011;18622;51.998;10.440;2023-10-09T10:03:34;15.57;;;6.80;;
32106;SDS011;18622;51.998;10.440;2023-10-09T10:06:05;16.85;;;7.62;;
32106;SDS011;18622;51.998;10.440;2023-10-09T10:08:36;12.85;;;7.22;;
32106;SDS011;18622;51.998;10.440;2023-10-09T10:11:05;13.35;;;7.00;;
32106;SDS011;18622;51.998;10.440;2023-10-09T10:16:14;12.70;;;7.43;;
32106;SDS011;18622;51.998;10.440;2023-10-09T10:18:53;12.83;;;7.60;;
32106;SDS011;18622;51.998;10.440;2023-10-09T10:21:30;14.77;;;7.13;;
32106;SDS011;18622;51.998;10.440;2023-10-09T10:24:00;15.05;;;7.03;;
32106;SDS011;18622;51.998;10.440;2023-10-09T10:26:36;12.40;;;6.80;;
32106;SDS011;18622;51.998;10.440;2023-10-09T10:29:16;14.47;;;7.53;;
32106;SDS011;18622;51.998;10.440;2023-10-09T10:34:27;20.90;;;10.83;;
32106;SDS011;18622;51.998;10.440;2023-10-09T10:36:57;20.95;;;11.28;;
32106;SDS011;18622;51.998;10.440;2023-10-09T10:39:25;24.27;;;11.95;;
32106;SDS011;18622;51.998;10.440;2023-10-09T10:42:14;26.27;;;11.93;;
32106;SDS011;18622;51.998;10.440;2023-10-09T10:45:04;33.08;;;12.98;;
32106;SDS011;18622;51.998;10.440;2023-10-09T10:47:29;23.15;;;12.60;;
32106;SDS011;18622;51.998;10.440;2023-10-09T10:50:00;33.20;;;14.35;;
32106;SDS011;18622;51.998;10.440;2023-10-09T10:52:47;30.70;;;13.20;;
32106;SDS011;18622;51.998;10.440;2023-10-09T10:55:16;26.30;;;12.98;;
32106;SDS011;18622;51.998;10.440;2023-10-09T10:57:46;29.40;;;13.22;;
32106;SDS011;18622;51.998;10.440;2023-10-09T11:00:20;40.63;;;15.13;;
32106;SDS011;18622;51.998;10.440;2023-10-09T11:03:06;40.87;;;15.33;;
32106;SDS011;18622;51.998;10.440;2023-10-09T11:05:45;37.90;;;14.63;;
32106;SDS011;18622;51.998;10.440;2023-10-09T11:08:11;33.10;;;14.63;;
32106;SDS011;18622;51.998;10.440;2023-10-09T11:10:39;36.28;;;14.93;;
32106;SDS011;18622;51.998;10.440;2023-10-09T11:13:08;38.75;;;15.05;;
32106;SDS011;18622;51.998;10.440;2023-10-09T11:15:38;42.65;;;16.52;;
32106;SDS011;18622;51.998;10.440;2023-10-09T11:18:14;36.03;;;16.33;;
32106;SDS011;18622;51.998;10.440;2023-10-09T11:20:55;37.60;;;16.67;;
32106;SDS011;18622;51.998;10.440;2023-10-09T11:23:31;39.63;;;15.53;;
32106;SDS011;18622;51.998;10.440;2023-10-09T11:26:02;40.33;;;17.20;;
32106;SDS011;18622;51.998;10.440;2023-10-09T11:31:59;44.20;;;16.73;;
32106;SDS011;18622;51.998;10.440;2023-10-09T11:34:39;39.65;;;16.80;;
32106;SDS011;18622;51.998;10.440;2023-10-09T11:39:41;43.23;;;16.25;;
32106;SDS011;18622;51.998;10.440;2023-10-09T11:42:19;38.20;;;16.00;;
32106;SDS011;18622;51.998;10.440;2023-10-09T11:44:49;44.88;;;17.65;;
32106;SDS011;18622;51.998;10.440;2023-10-09T11:47:19;40.45;;;17.40;;
32106;SDS011;18622;51.998;10.440;2023-10-09T11:49:55;44.25;;;18.02;;
32106;SDS011;18622;51.998;10.440;2023-10-09T11:55:02;47.20;;;17.17;;
32106;SDS011;18622;51.998;10.440;2023-10-09T11:57:32;45.50;;;18.98;;
32106;SDS011;18622;51.998;10.440;2023-10-09T12:00:01;44.73;;;18.00;;
32106;SDS011;18622;51.998;10.440;2023-10-09T12:02:48;43.97;;;18.37;;
32106;SDS011;18622;51.998;10.440;2023-10-09T12:05:16;41.87;;;18.13;;
32106;SDS011;18622;51.998;10.440;2023-10-09T12:07:45;43.08;;;18.20;;
32106;SDS011;18622;51.998;10.440;2023-10-09T12:10:13;44.53;;;19.65;;
32106;SDS011;18622;51.998;10.440;2023-10-09T12:12:40;45.33;;;18.40;;
32106;SDS011;18622;51.998;10.440;2023-10-09T12:15:10;37.93;;;16.87;;
32106;SDS011;18622;51.998;10.440;2023-10-09T12:17:40;39.03;;;19.00;;
32106;SDS011;18622;51.998;10.440;2023-10-09T12:20:09;44.85;;;19.90;;
32106;SDS011;18622;51.998;10.440;2023-10-09T12:22:39;42.58;;;18.23;;
32106;SDS011;18622;51.998;10.440;2023-10-09T12:25:07;37.20;;;16.63;;
32106;SDS011;18622;51.998;10.440;2023-10-09T12:27:35;37.23;;;17.45;;
32106;SDS011;18622;51.998;10.440;2023-10-09T12:30:03;41.83;;;15.67;;
32106;SDS011;18622;51.998;10.440;2023-10-09T12:32:31;41.33;;;16.17;;
32106;SDS011;18622;51.998;10.440;2023-10-09T12:35:00;34.00;;;14.63;;
32106;SDS011;18622;51.998;10.440;2023-10-09T12:37:28;36.30;;;15.97;;
32106;SDS011;18622;51.998;10.440;2023-10-09T12:39:57;33.27;;;15.57;;
32106;SDS011;18622;51.998;10.440;2023-10-09T12:42:24;33.87;;;14.20;;
32106;SDS011;18622;51.998;10.440;2023-10-09T12:44:54;28.90;;;13.65;;
32106;SDS011;18622;51.998;10.440;2023-10-09T12:47:23;23.73;;;11.05;;
32106;SDS011;18622;51.998;10.440;2023-10-09T12:49:52;20.45;;;10.03;;
32106;SDS011;18622;51.998;10.440;2023-10-09T12:52:20;20.93;;;10.07;;
32106;SDS011;18622;51.998;10.440;2023-10-09T12:54:49;21.82;;;10.23;;
32106;SDS011;18622;51.998;10.440;2023-10-09T12:57:18;18.70;;;9.83;;
32106;SDS011;18622;51.998;10.440;2023-10-09T12:59:46;18.90;;;8.07;;
32106;SDS011;18622;51.998;10.440;2023-10-09T13:02:14;17.43;;;9.23;;
32106;SDS011;18622;51.998;10.440;2023-10-09T13:04:55;17.42;;;9.25;;
32106;SDS011;18622;51.998;10.440;2023-10-09T13:07:26;21.83;;;9.00;;
32106;SDS011;18622;51.998;10.440;2023-10-09T13:09:54;16.63;;;9.37;;
32106;SDS011;18622;51.998;10.440;2023-10-09T13:12:38;19.90;;;9.57;;
32106;SDS011;18622;51.998;10.440;2023-10-09T13:15:09;24.30;;;10.98;;
32106;SDS011;18622;51.998;10.440;2023-10-09T13:17:37;23.77;;;10.43;;
32106;SDS011;18622;51.998;10.440;2023-10-09T13:20:06;19.10;;;10.23;;
32106;SDS011;18622;51.998;10.440;2023-10-09T13:22:35;22.37;;;10.27;;
32106;SDS011;18622;51.998;10.440;2023-10-09T13:25:12;24.40;;;10.93;;
32106;SDS011;18622;51.998;10.440;2023-10-09T13:27:43;20.23;;;11.10;;
32106;SDS011;18622;51.998;10.440;2023-10-09T13:30:15;24.12;;;11.50;;
32106;SDS011;18622;51.998;10.440;2023-10-09T13:32:44;24.80;;;11.57;;
32106;SDS011;18622;51.998;10.440;2023-10-09T13:35:13;20.45;;;10.32;;
32106;SDS011;18622;51.998;10.440;2023-10-09T13:37:43;20.55;;;11.40;;
32106;SDS011;18622;51.998;10.440;2023-10-09T13:40:13;19.83;;;10.90;;
32106;SDS011;18622;51.998;10.440;2023-10-09T13:42:43;22.15;;;11.75;;
32106;SDS011;18622;51.998;10.440;2023-10-09T13:45:11;19.60;;;10.30;;
32106;SDS011;18622;51.998;10.440;2023-10-09T13:50:09;35.10;;;10.87;;
32106;SDS011;18622;51.998;10.440;2023-10-09T13:52:39;19.85;;;10.30;;
32106;SDS011;18622;51.998;10.440;2023-10-09T13:55:07;17.37;;;9.37;;
32106;SDS011;18622;51.998;10.440;2023-10-09T13:57:44;18.43;;;9.97;;
32106;SDS011;18622;51.998;10.440;2023-10-09T14:00:13;18.03;;;10.33;;
32106;SDS011;18622;51.998;10.440;2023-10-09T14:02:46;16.17;;;9.27;;
32106;SDS011;18622;51.998;10.440;2023-10-09T14:05:15;17.17;;;9.23;;
32106;SDS011;18622;51.998;10.440;2023-10-09T14:07:43;18.27;;;9.40;;
32106;SDS011;18622;51.998;10.440;2023-10-09T14:10:11;19.40;;;9.45;;
32106;SDS011;18622;51.998;10.440;2023-10-09T14:12:47;18.13;;;10.13;;
32106;SDS011;18622;51.998;10.440;2023-10-09T14:15:16;16.90;;;9.00;;
32106;SDS011;18622;51.998;10.440;2023-10-09T14:17:44;18.03;;;9.20;;
32106;SDS011;18622;51.998;10.440;2023-10-09T14:20:17;16.75;;;9.08;;
32106;SDS011;18622;51.998;10.440;2023-10-09T14:22:58;17.37;;;8.70;;
32106;SDS011;18622;51.998;10.440;2023-10-09T14:25:28;14.50;;;8.90;;
32106;SDS011;18622;51.998;10.440;2023-10-09T14:27:56;17.07;;;8.40;;
32106;SDS011;18622;51.998;10.440;2023-10-09T14:30:24;15.50;;;8.47;;
32106;SDS011;18622;51.998;10.440;2023-10-09T14:32:59;16.17;;;8.50;;
32106;SDS011;18622;51.998;10.440;2023-10-09T14:35:29;11.97;;;7.65;;
32106;SDS011;18622;51.998;10.440;2023-10-09T14:37:59;12.93;;;7.67;;
32106;SDS011;18622;51.998;10.440;2023-10-09T14:40:28;13.85;;;7.55;;
32106;SDS011;18622;51.998;10.440;2023-10-09T14:42:57;12.33;;;7.23;;
32106;SDS011;18622;51.998;10.440;2023-10-09T14:45:25;8.83;;;6.30;;
32106;SDS011;18622;51.998;10.440;2023-10-09T14:47:53;11.70;;;7.05;;
32106;SDS011;18622;51.998;10.440;2023-10-09T14:50:21;14.67;;;7.60;;
32106;SDS011;18622;51.998;10.440;2023-10-09T14:52:50;14.43;;;7.37;;
32106;SDS011;18622;51.998;10.440;2023-10-09T14:55:17;10.93;;;7.17;;
32106;SDS011;18622;51.998;10.440;2023-10-09T14:57:47;10.45;;;7.33;;
32106;SDS011;18622;51.998;10.440;2023-10-09T15:00:16;11.15;;;8.03;;
32106;SDS011;18622;51.998;10.440;2023-10-09T15:02:45;13.08;;;8.23;;
32106;SDS011;18622;51.998;10.440;2023-10-09T15:05:13;14.57;;;7.80;;
32106;SDS011;18622;51.998;10.440;2023-10-09T15:07:41;12.73;;;7.97;;
32106;SDS011;18622;51.998;10.440;2023-10-09T15:10:11;11.50;;;7.58;;
32106;SDS011;18622;51.998;10.440;2023-10-09T15:12:41;12.07;;;7.25;;
32106;SDS011;18622;51.998;10.440;2023-10-09T15:15:09;11.68;;;7.22;;
32106;SDS011;18622;51.998;10.440;2023-10-09T15:17:40;12.37;;;7.57;;
32106;SDS011;18622;51.998;10.440;2023-10-09T15:20:10;12.55;;;6.80;;
32106;SDS011;18622;51.998;10.440;2023-10-09T15:22:43;11.48;;;7.83;;
32106;SDS011;18622;51.998;10.440;2023-10-09T15:25:12;16.93;;;8.00;;
32106;SDS011;18622;51.998;10.440;2023-10-09T15:27:41;13.20;;;7.47;;
32106;SDS011;18622;51.998;10.440;2023-10-09T15:30:09;17.10;;;8.70;;
32106;SDS011;18622;51.998;10.440;2023-10-09T15:32:42;13.35;;;6.95;;
32106;SDS011;18622;51.998;10.440;2023-10-09T15:35:11;11.10;;;7.65;;
32106;SDS011;18622;51.998;10.440;2023-10-09T15:37:39;13.67;;;7.10;;
32106;SDS011;18622;51.998;10.440;2023-10-09T15:40:08;12.98;;;7.60;;
32106;SDS011;18622;51.998;10.440;2023-10-09T15:42:42;11.90;;;8.17;;
32106;SDS011;18622;51.998;10.440;2023-10-09T15:45:13;15.63;;;8.17;;
32106;SDS011;18622;51.998;10.440;2023-10-09T15:47:41;10.70;;;8.20;;
32106;SDS011;18622;51.998;10.440;2023-10-09T15:50:11;15.58;;;9.28;;
32106;SDS011;18622;51.998;10.440;2023-10-09T15:52:40;15.55;;;9.80;;
32106;SDS011;18622;51.998;10.440;2023-10-09T15:55:08;15.50;;;9.50;;
32106;SDS011;18622;51.998;10.440;2023-10-09T15:57:43;18.83;;;9.63;;
32106;SDS011;18622;51.998;10.440;2023-10-09T16:02:48;21.53;;;10.23;;
32106;SDS011;18622;51.998;10.440;2023-10-09T16:05:13;18.32;;;10.82;;
32106;SDS011;18622;51.998;10.440;2023-10-09T16:07:42;20.17;;;11.43;;
32106;SDS011;18622;51.998;10.440;2023-10-09T16:10:10;21.63;;;12.60;;
32106;SDS011;18622;51.998;10.440;2023-10-09T16:12:39;18.47;;;11.97;;
32106;SDS011;18622;51.998;10.440;2023-10-09T16:15:08;23.27;;;12.78;;
32106;SDS011;18622;51.998;10.440;2023-10-09T16:17:38;24.32;;;12.80;;
32106;SDS011;18622;51.998;10.440;2023-10-09T16:20:06;24.10;;;14.40;;
32106;SDS011;18622;51.998;10.440;2023-10-09T16:22:36;29.03;;;12.90;;
32106;SDS011;18622;51.998;10.440;2023-10-09T16:25:04;26.53;;;13.70;;
32106;SDS011;18622;51.998;10.440;2023-10-09T16:27:33;33.60;;;15.30;;
32106;SDS011;18622;51.998;10.440;2023-10-09T16:30:02;26.35;;;12.98;;
32106;SDS011;18622;51.998;10.440;2023-10-09T16:32:32;29.25;;;14.45;;
32106;SDS011;18622;51.998;10.440;2023-10-09T16:34:59;29.13;;;15.03;;
32106;SDS011;18622;51.998;10.440;2023-10-09T16:37:28;30.08;;;15.98;;
32106;SDS011;18622;51.998;10.440;2023-10-09T16:39:56;25.60;;;14.77;;
32106;SDS011;18622;51.998;10.440;2023-10-09T16:42:24;26.40;;;14.47;;
32106;SDS011;18622;51.998;10.440;2023-10-09T16:44:51;31.70;;;14.87;;
32106;SDS011;18622;51.998;10.440;2023-10-09T16:47:21;31.25;;;14.60;;
32106;SDS011;18622;51.998;10.440;2023-10-09T16:49:49;27.37;;;14.60;;
32106;SDS011;18622;51.998;10.440;2023-10-09T16:52:17;26.93;;;14.53;;
32106;SDS011;18622;51.998;10.440;2023-10-09T16:54:45;33.57;;;14.57;;
32106;SDS011;18622;51.998;10.440;2023-10-09T16:57:13;28.23;;;14.73;;
32106;SDS011;18622;51.998;10.440;2023-10-09T16:59:41;27.63;;;14.27;;
32106;SDS011;18622;51.998;10.440;2023-10-09T17:02:10;27.37;;;14.43;;
32106;SDS011;18622;51.998;10.440;2023-10-09T17:04:38;31.27;;;16.32;;
32106;SDS011;18622;51.998;10.440;2023-10-09T17:09:36;24.37;;;13.03;;
32106;SDS011;18622;51.998;10.440;2023-10-09T17:12:06;25.35;;;12.95;;
32106;SDS011;18622;51.998;10.440;2023-10-09T17:14:34;19.00;;;11.57;;
32106;SDS011;18622;51.998;10.440;2023-10-09T17:17:03;25.60;;;11.95;;
32106;SDS011;18622;51.998;10.440;2023-10-09T17:19:32;24.92;;;10.75;;
32106;SDS011;18622;51.998;10.440;2023-10-09T17:22:02;16.50;;;10.63;;
32106;SDS011;18622;51.998;10.440;2023-10-09T17:24:31;26.15;;;12.63;;
32106;SDS011;18622;51.998;10.440;2023-10-09T17:26:59;22.47;;;10.77;;
32106;SDS011;18622;51.998;10.440;2023-10-09T17:29:27;21.93;;;11.57;;
32106;SDS011;18622;51.998;10.440;2023-10-09T17:31:54;18.83;;;10.80;;
32106;SDS011;18622;51.998;10.440;2023-10-09T17:34:22;20.30;;;11.07;;
32106;SDS011;18622;51.998;10.440;2023-10-09T17:36:52;18.45;;;10.38;;
32106;SDS011;18622;51.998;10.440;2023-10-09T17:39:20;18.73;;;10.40;;
32106;SDS011;18622;51.998;10.440;2023-10-09T17:41:49;18.52;;;9.48;;
32106;SDS011;18622;51.998;10.440;2023-10-09T17:44:19;17.55;;;9.28;;
32106;SDS011;18622;51.998;10.440;2023-10-09T17:46:47;17.23;;;10.68;;
32106;SDS011;18622;51.998;10.440;2023-10-09T17:49:15;22.93;;;11.08;;
32106;SDS011;18622;51.998;10.440;2023-10-09T17:51:43;26.10;;;10.97;;
32106;SDS011;18622;51.998;10.440;2023-10-09T17:54:11;22.57;;;10.73;;
32106;SDS011;18622;51.998;10.440;2023-10-09T17:56:39;19.23;;;9.60;;
32106;SDS011;18622;51.998;10.440;2023-10-09T17:59:07;28.80;;;10.97;;
32106;SDS011;18622;51.998;10.440;2023-10-09T18:01:38;32.45;;;13.43;;
32106;SDS011;18622;51.998;10.440;2023-10-09T18:04:05;18.77;;;8.90;;
32106;SDS011;18622;51.998;10.440;2023-10-09T18:06:33;15.20;;;6.10;;
32106;SDS011;18622;51.998;10.440;2023-10-09T18:09:02;10.63;;;5.67;;
32106;SDS011;18622;51.998;10.440;2023-10-09T18:11:32;11.08;;;4.75;;
32106;SDS011;18622;51.998;10.440;2023-10-09T18:14:00;10.20;;;5.27;;
32106;SDS011;18622;51.998;10.440;2023-10-09T18:16:27;10.47;;;5.57;;
32106;SDS011;18622;51.998;10.440;2023-10-09T18:18:55;12.87;;;5.07;;
32106;SDS011;18622;51.998;10.440;2023-10-09T18:21:23;13.20;;;5.47;;
32106;SDS011;18622;51.998;10.440;2023-10-09T18:23:51;13.43;;;5.40;;
32106;SDS011;18622;51.998;10.440;2023-10-09T18:26:20;10.50;;;4.80;;
32106;SDS011;18622;51.998;10.440;2023-10-09T18:28:49;10.90;;;5.00;;
32106;SDS011;18622;51.998;10.440;2023-10-09T18:31:18;9.33;;;5.08;;
32106;SDS011;18622;51.998;10.440;2023-10-09T18:33:47;11.93;;;6.23;;
32106;SDS011;18622;51.998;10.440;2023-10-09T18:36:17;12.10;;;4.95;;
32106;SDS011;18622;51.998;10.440;2023-10-09T18:38:45;10.80;;;4.87;;
32106;SDS011;18622;51.998;10.440;2023-10-09T18:41:14;13.80;;;5.25;;